Overview Statistics Trail Chart Weather Telemetry Raw packets
 

This is the latest recevied weather packets stored in our database for station/object KD4EG. If no packets are shown the sender has not sent any weather packets the latest 10 day(s).

<< 81 82 83 84 85 86 87 >>
Time Temp. Humidity Pressure Rain* Wind** Luminosity Snow
1788031473 28.89° C 62% 1024.7 hPa 0 mm - 624 W/m² -
1788031168 28.33° C 65% 1024.8 hPa 0 mm - 630 W/m² -
1788030867 28.33° C 65% 1024.8 hPa 0 mm - 173 W/m² -
1788030561 28.89° C 63% 1024.9 hPa 0 mm - 183 W/m² -
1788030257 28.89° C 63% 1024.9 hPa 0 mm - 180 W/m² -
1788029957 30° C 62% 1024.8 hPa 0 mm - 245 W/m² -
1788029652 30° C 61% 1025.2 hPa 0 mm - 689 W/m² -
1788029347 30.56° C 61% 1025 hPa 0 mm - 375 W/m² -
1788029046 30° C 61% 1025.4 hPa 0 mm - 737 W/m² -
1788028746 28.89° C 62% 1025.2 hPa 0 mm - 748 W/m² -
1788028440 28.33° C 63% 1025.6 hPa 0 mm - 219 W/m² -
1788028136 28.89° C 63% 1025.5 hPa 0 mm - 176 W/m² -
1788027831 28.33° C 65% 1025.6 hPa 0 mm - 186 W/m² -
1788027530 27.78° C 66% 1025.7 hPa 0 mm - 741 W/m² -
1788027225 27.78° C 67% 1025.8 hPa 0 mm - 189 W/m² -
1788026924 28.89° C 64% 1025.9 hPa 0 mm - 177 W/m² -
1788026620 28.89° C 64% 1025.8 hPa 0 mm - 211 W/m² -
1788026314 28.89° C 64% 1025.8 hPa 0 mm - 667 W/m² -
1788026010 28.33° C 65% 1025.7 hPa 0 mm - 679 W/m² -
1788025709 28.89° C 66% 1026.1 hPa 0 mm - 228 W/m² -
1788025409 28.33° C 64% 1026.1 hPa 0 mm - 318 W/m² -
1788025105 28.89° C 65% 1026.1 hPa 0 mm - 682 W/m² -
1788024803 28.89° C 64% 1025.9 hPa 0 mm - 544 W/m² -
1788024500 28.33° C 65% 1026.2 hPa 0 mm - 722 W/m² -
1788024207 28.33° C 66% 1026.4 hPa 0 mm - 323 W/m² -

* Rain latest hour (hover to see other rain measurements)
** Current wind speed in m/s (hover to see current wind gust speed)